sensor_id;sensor_type;location;lat;lon;timestamp;pressure;altitude;pressure_sealevel;temperature;humidity
57644;BME280;43474;46.510;6.686;2023-07-28T00:01:26;95934.34;;;23.06;66.98
57644;BME280;43474;46.510;6.686;2023-07-28T00:03:52;95935.47;;;23.05;67.02
57644;BME280;43474;46.510;6.686;2023-07-28T00:06:17;95944.84;;;23.07;67.07
57644;BME280;43474;46.510;6.686;2023-07-28T00:08:43;95938.63;;;23.07;66.95
57644;BME280;43474;46.510;6.686;2023-07-28T00:11:10;95934.03;;;23.07;67.06
57644;BME280;43474;46.510;6.686;2023-07-28T00:13:37;95949.44;;;23.07;67.03
57644;BME280;43474;46.510;6.686;2023-07-28T00:16:03;95936.28;;;23.05;67.06
57644;BME280;43474;46.510;6.686;2023-07-28T00:18:29;95942.13;;;23.07;67.07
57644;BME280;43474;46.510;6.686;2023-07-28T00:20:54;95943.25;;;23.06;67.15
57644;BME280;43474;46.510;6.686;2023-07-28T00:23:20;95940.88;;;23.05;67.02
57644;BME280;43474;46.510;6.686;2023-07-28T00:25:45;95941.69;;;23.05;66.98
57644;BME280;43474;46.510;6.686;2023-07-28T00:28:11;95938.19;;;23.05;66.98
57644;BME280;43474;46.510;6.686;2023-07-28T00:30:37;95948.66;;;23.06;66.91
57644;BME280;43474;46.510;6.686;2023-07-28T00:33:02;95947.88;;;23.06;67.00
57644;BME280;43474;46.510;6.686;2023-07-28T00:35:28;95952.94;;;23.07;67.00
57644;BME280;43474;46.510;6.686;2023-07-28T00:37:53;95955.66;;;23.07;67.08
57644;BME280;43474;46.510;6.686;2023-07-28T00:40:19;95956.78;;;23.06;66.94
57644;BME280;43474;46.510;6.686;2023-07-28T00:42:44;95962.50;;;23.05;67.06
57644;BME280;43474;46.510;6.686;2023-07-28T00:45:10;95958.22;;;23.04;67.05
57644;BME280;43474;46.510;6.686;2023-07-28T00:47:36;95961.38;;;23.06;66.84
57644;BME280;43474;46.510;6.686;2023-07-28T00:50:02;95972.19;;;23.06;66.87
57644;BME280;43474;46.510;6.686;2023-07-28T00:52:28;95973.31;;;23.05;66.85
57644;BME280;43474;46.510;6.686;2023-07-28T00:54:54;95969.03;;;23.04;66.84
57644;BME280;43474;46.510;6.686;2023-07-28T00:57:19;95978.41;;;23.06;66.85
57644;BME280;43474;46.510;6.686;2023-07-28T00:59:45;95994.16;;;23.04;66.87
57644;BME280;43474;46.510;6.686;2023-07-28T01:02:11;96001.94;;;23.06;66.62
57644;BME280;43474;46.510;6.686;2023-07-28T01:04:37;96009.25;;;23.05;66.84
57644;BME280;43474;46.510;6.686;2023-07-28T01:07:11;96008.13;;;23.06;66.92
57644;BME280;43474;46.510;6.686;2023-07-28T01:10:05;96008.91;;;23.07;67.04
57644;BME280;43474;46.510;6.686;2023-07-28T01:12:32;96011.63;;;23.07;66.94
57644;BME280;43474;46.510;6.686;2023-07-28T01:14:57;96015.94;;;23.08;66.92
57644;BME280;43474;46.510;6.686;2023-07-28T01:17:23;96018.94;;;23.06;67.13
57644;BME280;43474;46.510;6.686;2023-07-28T01:19:52;96021.63;;;23.06;67.35
57644;BME280;43474;46.510;6.686;2023-07-28T01:22:46;96035.63;;;23.08;67.02
57644;BME280;43474;46.510;6.686;2023-07-28T01:28:10;96028.97;;;23.06;67.23
57644;BME280;43474;46.510;6.686;2023-07-28T01:30:38;96042.13;;;23.07;67.19
57644;BME280;43474;46.510;6.686;2023-07-28T01:33:06;96041.03;;;23.08;67.13
57644;BME280;43474;46.510;6.686;2023-07-28T01:35:36;96043.25;;;23.06;66.96
57644;BME280;43474;46.510;6.686;2023-07-28T01:38:02;96042.47;;;23.06;66.89
57644;BME280;43474;46.510;6.686;2023-07-28T01:40:27;96042.47;;;23.06;66.98
57644;BME280;43474;46.510;6.686;2023-07-28T01:42:53;96035.94;;;23.07;66.69
57644;BME280;43474;46.510;6.686;2023-07-28T01:45:18;96048.66;;;23.06;66.77
57644;BME280;43474;46.510;6.686;2023-07-28T01:47:44;96050.59;;;23.06;66.75
57644;BME280;43474;46.510;6.686;2023-07-28T01:50:10;96047.09;;;23.05;66.58
57644;BME280;43474;46.510;6.686;2023-07-28T01:52:35;96051.38;;;23.06;66.47
57644;BME280;43474;46.510;6.686;2023-07-28T01:55:01;96049.78;;;23.05;66.54
57644;BME280;43474;46.510;6.686;2023-07-28T01:57:27;96054.41;;;23.05;66.44
57644;BME280;43474;46.510;6.686;2023-07-28T01:59:54;96052.50;;;23.05;66.17
57644;BME280;43474;46.510;6.686;2023-07-28T02:02:19;96055.53;;;23.04;66.18
57644;BME280;43474;46.510;6.686;2023-07-28T02:04:45;96052.16;;;23.07;65.91
57644;BME280;43474;46.510;6.686;2023-07-28T02:07:11;96068.38;;;23.07;65.99
57644;BME280;43474;46.510;6.686;2023-07-28T02:09:37;96056.00;;;23.06;65.87
57644;BME280;43474;46.510;6.686;2023-07-28T02:12:02;96059.03;;;23.04;66.09
57644;BME280;43474;46.510;6.686;2023-07-28T02:14:28;96057.44;;;23.03;65.88
57644;BME280;43474;46.510;6.686;2023-07-28T02:16:53;96064.44;;;23.04;66.03
57644;BME280;43474;46.510;6.686;2023-07-28T02:19:19;96048.22;;;23.04;65.76
57644;BME280;43474;46.510;6.686;2023-07-28T02:21:44;96047.72;;;23.02;65.81
57644;BME280;43474;46.510;6.686;2023-07-28T02:24:10;96046.31;;;23.05;65.91
57644;BME280;43474;46.510;6.686;2023-07-28T02:26:36;96045.19;;;23.06;65.78
57644;BME280;43474;46.510;6.686;2023-07-28T02:29:01;96036.28;;;23.05;65.73
57644;BME280;43474;46.510;6.686;2023-07-28T02:31:27;96034.38;;;23.06;65.62
57644;BME280;43474;46.510;6.686;2023-07-28T02:33:52;96035.50;;;23.05;65.80
57644;BME280;43474;46.510;6.686;2023-07-28T02:36:18;96028.16;;;23.05;65.80
57644;BME280;43474;46.510;6.686;2023-07-28T02:38:43;96020.84;;;23.06;65.66
57644;BME280;43474;46.510;6.686;2023-07-28T02:41:09;96024.34;;;23.06;65.84
57644;BME280;43474;46.510;6.686;2023-07-28T02:43:34;96027.84;;;23.07;65.82
57644;BME280;43474;46.510;6.686;2023-07-28T02:46:00;96018.94;;;23.06;66.03
57644;BME280;43474;46.510;6.686;2023-07-28T02:48:25;96035.16;;;23.06;66.04
57644;BME280;43474;46.510;6.686;2023-07-28T02:50:51;96035.94;;;23.07;65.97
57644;BME280;43474;46.510;6.686;2023-07-28T02:53:17;96042.13;;;23.07;66.11
57644;BME280;43474;46.510;6.686;2023-07-28T02:55:44;96037.84;;;23.06;66.17
57644;BME280;43474;46.510;6.686;2023-07-28T02:58:10;96030.41;;;23.03;66.30
57644;BME280;43474;46.510;6.686;2023-07-28T03:00:43;96044.38;;;23.05;66.36
57644;BME280;43474;46.510;6.686;2023-07-28T03:03:10;96042.47;;;23.06;66.35
57644;BME280;43474;46.510;6.686;2023-07-28T03:05:36;96047.53;;;23.07;66.31
57644;BME280;43474;46.510;6.686;2023-07-28T03:08:03;96041.34;;;23.07;66.97
57644;BME280;43474;46.510;6.686;2023-07-28T03:10:28;96040.56;;;23.06;66.76
57644;BME280;43474;46.510;6.686;2023-07-28T03:12:55;96038.66;;;23.07;66.81
57644;BME280;43474;46.510;6.686;2023-07-28T03:15:21;96037.84;;;23.06;66.88
57644;BME280;43474;46.510;6.686;2023-07-28T03:17:50;96035.94;;;23.07;66.99
57644;BME280;43474;46.510;6.686;2023-07-28T03:20:16;96036.72;;;23.07;67.02
57644;BME280;43474;46.510;6.686;2023-07-28T03:22:42;96039.44;;;23.07;67.06
57644;BME280;43474;46.510;6.686;2023-07-28T03:25:08;96039.44;;;23.07;67.38
57644;BME280;43474;46.510;6.686;2023-07-28T03:27:34;96038.66;;;23.07;67.48
57644;BME280;43474;46.510;6.686;2023-07-28T03:30:00;96031.66;;;23.06;67.72
57644;BME280;43474;46.510;6.686;2023-07-28T03:32:26;96030.53;;;23.07;67.67
57644;BME280;43474;46.510;6.686;2023-07-28T03:34:51;96034.03;;;23.07;67.67
57644;BME280;43474;46.510;6.686;2023-07-28T03:37:17;96032.44;;;23.06;67.76
57644;BME280;43474;46.510;6.686;2023-07-28T03:39:42;96028.63;;;23.07;67.71
57644;BME280;43474;46.510;6.686;2023-07-28T03:42:08;96040.56;;;23.06;67.74
57644;BME280;43474;46.510;6.686;2023-07-28T03:44:34;96036.28;;;23.05;67.64
57644;BME280;43474;46.510;6.686;2023-07-28T03:47:03;96031.31;;;23.07;67.86
57644;BME280;43474;46.510;6.686;2023-07-28T03:49:29;96033.25;;;23.07;67.71
57644;BME280;43474;46.510;6.686;2023-07-28T03:51:54;96027.03;;;23.06;67.79
57644;BME280;43474;46.510;6.686;2023-07-28T03:54:20;96023.56;;;23.06;68.12
57644;BME280;43474;46.510;6.686;2023-07-28T03:56:46;96034.03;;;23.07;68.06
57644;BME280;43474;46.510;6.686;2023-07-28T03:59:11;96028.63;;;23.07;68.06
57644;BME280;43474;46.510;6.686;2023-07-28T04:01:37;96025.91;;;23.07;67.96
57644;BME280;43474;46.510;6.686;2023-07-28T04:04:02;96031.31;;;23.07;68.10
57644;BME280;43474;46.510;6.686;2023-07-28T04:06:49;96039.13;;;23.09;68.22
57644;BME280;43474;46.510;6.686;2023-07-28T04:09:16;96042.97;;;23.08;68.27
57644;BME280;43474;46.510;6.686;2023-07-28T04:11:42;96044.53;;;23.09;68.24
57644;BME280;43474;46.510;6.686;2023-07-28T04:14:08;96046.75;;;23.07;68.28
57644;BME280;43474;46.510;6.686;2023-07-28T04:16:34;96041.84;;;23.09;68.48
57644;BME280;43474;46.510;6.686;2023-07-28T04:18:59;96047.53;;;23.07;68.74
57644;BME280;43474;46.510;6.686;2023-07-28T04:21:25;96052.16;;;23.07;68.31
57644;BME280;43474;46.510;6.686;2023-07-28T04:23:50;96061.06;;;23.07;68.51
57644;BME280;43474;46.510;6.686;2023-07-28T04:26:17;96045.50;;;23.04;68.52
57644;BME280;43474;46.510;6.686;2023-07-28T04:28:43;96053.78;;;23.08;68.70
57644;BME280;43474;46.510;6.686;2023-07-28T04:31:08;96045.66;;;23.08;68.27
57644;BME280;43474;46.510;6.686;2023-07-28T04:33:34;96049.00;;;23.05;68.31
57644;BME280;43474;46.510;6.686;2023-07-28T04:36:02;96045.97;;;23.06;68.70
57644;BME280;43474;46.510;6.686;2023-07-28T04:38:28;96048.38;;;23.08;68.93
57644;BME280;43474;46.510;6.686;2023-07-28T04:40:53;96050.25;;;23.07;68.81
57644;BME280;43474;46.510;6.686;2023-07-28T04:43:19;96049.16;;;23.08;68.52
57644;BME280;43474;46.510;6.686;2023-07-28T04:45:45;96052.16;;;23.07;68.59
57644;BME280;43474;46.510;6.686;2023-07-28T04:48:10;96060.75;;;23.09;68.79
57644;BME280;43474;46.510;6.686;2023-07-28T04:50:36;96060.75;;;23.09;68.82
57644;BME280;43474;46.510;6.686;2023-07-28T04:53:02;96062.66;;;23.08;68.87
57644;BME280;43474;46.510;6.686;2023-07-28T04:55:28;96070.00;;;23.08;69.02
57644;BME280;43474;46.510;6.686;2023-07-28T04:57:55;96072.69;;;23.08;68.95
57644;BME280;43474;46.510;6.686;2023-07-28T05:00:20;96079.69;;;23.09;68.90
57644;BME280;43474;46.510;6.686;2023-07-28T05:02:46;96083.16;;;23.09;68.70
57644;BME280;43474;46.510;6.686;2023-07-28T05:05:12;96086.22;;;23.08;68.91
57644;BME280;43474;46.510;6.686;2023-07-28T05:07:37;96085.09;;;23.09;69.12
57644;BME280;43474;46.510;6.686;2023-07-28T05:10:03;96081.59;;;23.08;68.95
57644;BME280;43474;46.510;6.686;2023-07-28T05:12:28;96078.88;;;23.08;69.32
57644;BME280;43474;46.510;6.686;2023-07-28T05:14:54;96084.28;;;23.08;69.01
57644;BME280;43474;46.510;6.686;2023-07-28T05:17:19;96080.81;;;23.08;69.07
57644;BME280;43474;46.510;6.686;2023-07-28T05:19:45;96081.59;;;23.08;69.25
57644;BME280;43474;46.510;6.686;2023-07-28T05:22:10;96085.38;;;23.07;69.15
57644;BME280;43474;46.510;6.686;2023-07-28T05:24:36;96069.16;;;23.07;69.18
57644;BME280;43474;46.510;6.686;2023-07-28T05:27:02;96067.59;;;23.06;68.96
57644;BME280;43474;46.510;6.686;2023-07-28T05:29:27;96071.09;;;23.07;69.35
57644;BME280;43474;46.510;6.686;2023-07-28T05:31:53;96068.38;;;23.07;69.47
57644;BME280;43474;46.510;6.686;2023-07-28T05:34:18;96070.28;;;23.06;69.64
57644;BME280;43474;46.510;6.686;2023-07-28T05:36:44;96074.91;;;23.06;69.87
57644;BME280;43474;46.510;6.686;2023-07-28T05:39:10;96079.53;;;23.05;69.78
57644;BME280;43474;46.510;6.686;2023-07-28T05:41:36;96083.34;;;23.04;69.67
57644;BME280;43474;46.510;6.686;2023-07-28T05:44:03;96088.75;;;23.04;70.04
57644;BME280;43474;46.510;6.686;2023-07-28T05:46:29;96083.69;;;23.03;70.23
57644;BME280;43474;46.510;6.686;2023-07-28T05:48:55;96086.38;;;23.03;70.54
57644;BME280;43474;46.510;6.686;2023-07-28T05:51:21;96086.06;;;23.04;70.34
57644;BME280;43474;46.510;6.686;2023-07-28T05:53:47;96081.09;;;23.06;70.57
57644;BME280;43474;46.510;6.686;2023-07-28T05:56:13;96091.47;;;23.04;70.74
57644;BME280;43474;46.510;6.686;2023-07-28T05:58:38;96084.47;;;23.03;70.83
57644;BME280;43474;46.510;6.686;2023-07-28T06:01:04;96093.84;;;23.06;70.69
57644;BME280;43474;46.510;6.686;2023-07-28T06:03:30;96104.66;;;23.06;70.98
57644;BME280;43474;46.510;6.686;2023-07-28T06:05:56;96102.72;;;23.06;70.84
57644;BME280;43474;46.510;6.686;2023-07-28T06:08:22;96107.34;;;23.06;70.93
57644;BME280;43474;46.510;6.686;2023-07-28T06:10:48;96121.66;;;23.06;71.28
57644;BME280;43474;46.510;6.686;2023-07-28T06:13:13;96114.66;;;23.05;71.99
57644;BME280;43474;46.510;6.686;2023-07-28T06:15:39;96116.25;;;23.06;71.71
57644;BME280;43474;46.510;6.686;2023-07-28T06:18:05;96117.81;;;23.07;71.50
57644;BME280;43474;46.510;6.686;2023-07-28T06:20:31;96120.53;;;23.07;71.82
57644;BME280;43474;46.510;6.686;2023-07-28T06:22:56;96125.94;;;23.07;72.43
57644;BME280;43474;46.510;6.686;2023-07-28T06:25:22;96116.25;;;23.06;73.09
57644;BME280;43474;46.510;6.686;2023-07-28T06:27:47;96131.34;;;23.07;73.32
57644;BME280;43474;46.510;6.686;2023-07-28T06:30:13;96125.16;;;23.07;73.06
57644;BME280;43474;46.510;6.686;2023-07-28T06:32:39;96134.53;;;23.09;73.49
57644;BME280;43474;46.510;6.686;2023-07-28T06:35:05;96120.22;;;23.09;74.35
57644;BME280;43474;46.510;6.686;2023-07-28T06:37:33;96126.41;;;23.09;73.54
57644;BME280;43474;46.510;6.686;2023-07-28T06:39:58;96126.09;;;23.11;74.48
57644;BME280;43474;46.510;6.686;2023-07-28T06:42:24;96138.81;;;23.10;74.25
57644;BME280;43474;46.510;6.686;2023-07-28T06:44:51;96138.81;;;23.10;74.64
57644;BME280;43474;46.510;6.686;2023-07-28T06:47:18;96130.72;;;23.10;74.56
57644;BME280;43474;46.510;6.686;2023-07-28T06:49:43;96129.59;;;23.11;74.94
57644;BME280;43474;46.510;6.686;2023-07-28T06:52:09;96139.59;;;23.11;75.45
57644;BME280;43474;46.510;6.686;2023-07-28T06:54:36;96124.50;;;23.10;75.04
57644;BME280;43474;46.510;6.686;2023-07-28T06:57:02;96133.59;;;23.05;75.53
57644;BME280;43474;46.510;6.686;2023-07-28T06:59:28;96139.00;;;23.05;75.57
57644;BME280;43474;46.510;6.686;2023-07-28T07:01:53;96143.59;;;23.05;75.89
57644;BME280;43474;46.510;6.686;2023-07-28T07:04:21;96149.34;;;23.03;75.90
57644;BME280;43474;46.510;6.686;2023-07-28T07:06:47;96142.81;;;23.04;76.15
57644;BME280;43474;46.510;6.686;2023-07-28T07:09:12;96139.44;;;23.07;75.36
57644;BME280;43474;46.510;6.686;2023-07-28T07:11:40;96145.00;;;23.11;75.70
57644;BME280;43474;46.510;6.686;2023-07-28T07:14:06;96145.50;;;23.13;75.94
57644;BME280;43474;46.510;6.686;2023-07-28T07:16:33;96148.50;;;23.11;76.32
57644;BME280;43474;46.510;6.686;2023-07-28T07:18:59;96142.31;;;23.11;76.99
57644;BME280;43474;46.510;6.686;2023-07-28T07:21:27;96142.31;;;23.11;77.17
57644;BME280;43474;46.510;6.686;2023-07-28T07:23:52;96140.41;;;23.11;77.58
57644;BME280;43474;46.510;6.686;2023-07-28T07:26:18;96148.50;;;23.11;76.75
57644;BME280;43474;46.510;6.686;2023-07-28T07:28:43;96139.31;;;23.12;76.99
57644;BME280;43474;46.510;6.686;2023-07-28T07:31:13;96145.81;;;23.11;76.57
57644;BME280;43474;46.510;6.686;2023-07-28T07:33:39;96150.56;;;23.14;76.57
57644;BME280;43474;46.510;6.686;2023-07-28T07:36:05;96153.28;;;23.14;77.25
57644;BME280;43474;46.510;6.686;2023-07-28T07:38:30;96144.38;;;23.14;77.05
57644;BME280;43474;46.510;6.686;2023-07-28T07:40:56;96153.28;;;23.14;77.09
57644;BME280;43474;46.510;6.686;2023-07-28T07:43:21;96149.78;;;23.14;78.09
57644;BME280;43474;46.510;6.686;2023-07-28T07:45:47;96152.47;;;23.14;79.04
57644;BME280;43474;46.510;6.686;2023-07-28T07:48:13;96157.88;;;23.14;79.02
57644;BME280;43474;46.510;6.686;2023-07-28T07:50:38;96150.91;;;23.13;79.39
57644;BME280;43474;46.510;6.686;2023-07-28T07:53:04;96152.00;;;23.12;79.70
57644;BME280;43474;46.510;6.686;2023-07-28T07:55:30;96157.41;;;23.12;79.63
57644;BME280;43474;46.510;6.686;2023-07-28T07:57:58;96152.47;;;23.14;79.54
57644;BME280;43474;46.510;6.686;2023-07-28T08:00:24;96152.16;;;23.15;79.92
57644;BME280;43474;46.510;6.686;2023-07-28T08:02:49;96152.63;;;23.17;79.19
57644;BME280;43474;46.510;6.686;2023-07-28T08:05:15;96151.50;;;23.18;79.26
57644;BME280;43474;46.510;6.686;2023-07-28T08:07:41;96155.47;;;23.21;78.43
57644;BME280;43474;46.510;6.686;2023-07-28T08:10:08;96154.34;;;23.22;78.31
57644;BME280;43474;46.510;6.686;2023-07-28T08:12:33;96147.84;;;23.23;78.73
57644;BME280;43474;46.510;6.686;2023-07-28T08:14:59;96151.00;;;23.25;79.71
57644;BME280;43474;46.510;6.686;2023-07-28T08:17:27;96165.31;;;23.26;79.40
57644;BME280;43474;46.510;6.686;2023-07-28T08:19:53;96152.59;;;23.26;80.48
57644;BME280;43474;46.510;6.686;2023-07-28T08:22:18;96146.06;;;23.27;80.14
57644;BME280;43474;46.510;6.686;2023-07-28T08:24:46;96157.03;;;23.31;80.95
57644;BME280;43474;46.510;6.686;2023-07-28T08:27:12;96153.69;;;23.34;81.84
57644;BME280;43474;46.510;6.686;2023-07-28T08:29:37;96151.75;;;23.34;82.64
57644;BME280;43474;46.510;6.686;2023-07-28T08:32:03;96154.00;;;23.32;82.50
57644;BME280;43474;46.510;6.686;2023-07-28T08:34:29;96148.28;;;23.34;82.63
57644;BME280;43474;46.510;6.686;2023-07-28T08:36:54;96149.06;;;23.34;83.55
57644;BME280;43474;46.510;6.686;2023-07-28T08:39:20;96152.88;;;23.33;82.74
57644;BME280;43474;46.510;6.686;2023-07-28T08:41:45;96152.88;;;23.33;82.60
57644;BME280;43474;46.510;6.686;2023-07-28T08:44:11;96154.47;;;23.34;83.16
57644;BME280;43474;46.510;6.686;2023-07-28T08:46:36;96156.38;;;23.34;83.34
57644;BME280;43474;46.510;6.686;2023-07-28T08:49:02;96151.75;;;23.34;83.17
57644;BME280;43474;46.510;6.686;2023-07-28T08:51:28;96149.22;;;23.38;83.81
57644;BME280;43474;46.510;6.686;2023-07-28T08:53:56;96151.13;;;23.37;84.14
57644;BME280;43474;46.510;6.686;2023-07-28T08:56:24;96156.53;;;23.37;84.00
57644;BME280;43474;46.510;6.686;2023-07-28T08:58:57;96153.50;;;23.39;83.58
57644;BME280;43474;46.510;6.686;2023-07-28T09:01:23;96154.28;;;23.39;83.20
57644;BME280;43474;46.510;6.686;2023-07-28T09:03:49;96158.91;;;23.39;83.83
57644;BME280;43474;46.510;6.686;2023-07-28T09:06:14;96154.28;;;23.39;83.21
57644;BME280;43474;46.510;6.686;2023-07-28T09:08:40;96159.69;;;23.39;83.24
57644;BME280;43474;46.510;6.686;2023-07-28T09:11:08;96164.78;;;23.41;84.24
57644;BME280;43474;46.510;6.686;2023-07-28T09:13:39;96160.16;;;23.41;84.16
57644;BME280;43474;46.510;6.686;2023-07-28T09:16:16;96157.44;;;23.41;84.31
57644;BME280;43474;46.510;6.686;2023-07-28T09:18:42;96170.34;;;23.44;85.10
57644;BME280;43474;46.510;6.686;2023-07-28T09:21:16;96165.72;;;23.45;85.49
57644;BME280;43474;46.510;6.686;2023-07-28T09:23:42;96146.31;;;23.43;84.83
57644;BME280;43474;46.510;6.686;2023-07-28T09:26:07;96160.31;;;23.45;85.14
57644;BME280;43474;46.510;6.686;2023-07-28T09:28:40;96165.38;;;23.46;85.63
57644;BME280;43474;46.510;6.686;2023-07-28T09:31:07;96156.47;;;23.46;85.69
57644;BME280;43474;46.510;6.686;2023-07-28T09:33:37;96145.19;;;23.44;85.83
57644;BME280;43474;46.510;6.686;2023-07-28T09:36:10;96142.16;;;23.45;85.33
57644;BME280;43474;46.510;6.686;2023-07-28T09:38:40;96147.56;;;23.45;85.11
57644;BME280;43474;46.510;6.686;2023-07-28T09:41:10;96149.50;;;23.45;85.45
57644;BME280;43474;46.510;6.686;2023-07-28T09:43:37;96162.38;;;23.48;85.74
57644;BME280;43474;46.510;6.686;2023-07-28T09:46:06;96157.25;;;23.46;85.83
57644;BME280;43474;46.510;6.686;2023-07-28T09:48:32;96157.59;;;23.45;86.17
57644;BME280;43474;46.510;6.686;2023-07-28T09:51:14;96156.03;;;23.44;85.72
57644;BME280;43474;46.510;6.686;2023-07-28T09:53:46;96158.38;;;23.45;85.77
57644;BME280;43474;46.510;6.686;2023-07-28T09:56:17;96159.19;;;23.46;86.02
57644;BME280;43474;46.510;6.686;2023-07-28T09:58:49;96157.25;;;23.46;86.17
57644;BME280;43474;46.510;6.686;2023-07-28T10:01:15;96159.00;;;23.51;87.04
57644;BME280;43474;46.510;6.686;2023-07-28T10:03:41;96159.00;;;23.51;86.95
57644;BME280;43474;46.510;6.686;2023-07-28T10:06:06;96160.13;;;23.50;86.18
57644;BME280;43474;46.510;6.686;2023-07-28T10:08:33;96159.00;;;23.51;85.56
57644;BME280;43474;46.510;6.686;2023-07-28T10:10:58;96153.28;;;23.53;85.68
57644;BME280;43474;46.510;6.686;2023-07-28T10:13:24;96157.41;;;23.50;84.99
57644;BME280;43474;46.510;6.686;2023-07-28T10:15:52;96158.69;;;23.53;84.12
57644;BME280;43474;46.510;6.686;2023-07-28T10:18:21;96160.28;;;23.54;83.49
57644;BME280;43474;46.510;6.686;2023-07-28T10:20:47;96162.63;;;23.55;83.22
57644;BME280;43474;46.510;6.686;2023-07-28T10:23:16;96158.03;;;23.56;84.61
57644;BME280;43474;46.510;6.686;2023-07-28T10:25:43;96150.69;;;23.56;84.46
57644;BME280;43474;46.510;6.686;2023-07-28T10:28:30;96151.97;;;23.59;85.35
57644;BME280;43474;46.510;6.686;2023-07-28T10:30:57;96153.09;;;23.58;84.67
57644;BME280;43474;46.510;6.686;2023-07-28T10:33:28;96148.47;;;23.58;84.45
57644;BME280;43474;46.510;6.686;2023-07-28T10:35:54;96141.16;;;23.59;84.81
57644;BME280;43474;46.510;6.686;2023-07-28T10:38:31;96136.53;;;23.59;84.54
57644;BME280;43474;46.510;6.686;2023-07-28T10:41:15;96133.81;;;23.59;84.90
57644;BME280;43474;46.510;6.686;2023-07-28T10:43:41;96136.19;;;23.61;83.69
57644;BME280;43474;46.510;6.686;2023-07-28T10:46:09;96133.50;;;23.61;82.70
57644;BME280;43474;46.510;6.686;2023-07-28T10:48:43;96133.97;;;23.63;82.41
57644;BME280;43474;46.510;6.686;2023-07-28T10:51:09;96134.78;;;23.63;82.61
57644;BME280;43474;46.510;6.686;2023-07-28T10:53:37;96131.75;;;23.65;83.03
57644;BME280;43474;46.510;6.686;2023-07-28T10:56:03;96135.56;;;23.64;83.04
57644;BME280;43474;46.510;6.686;2023-07-28T10:58:31;96138.75;;;23.66;82.21
57644;BME280;43474;46.510;6.686;2023-07-28T11:00:57;96130.16;;;23.64;81.31
57644;BME280;43474;46.510;6.686;2023-07-28T11:03:23;96144.78;;;23.63;80.64
57644;BME280;43474;46.510;6.686;2023-07-28T11:05:49;96135.88;;;23.62;80.36
57644;BME280;43474;46.510;6.686;2023-07-28T11:08:16;96132.38;;;23.62;80.43
57644;BME280;43474;46.510;6.686;2023-07-28T11:10:41;96132.69;;;23.60;81.07
57644;BME280;43474;46.510;6.686;2023-07-28T11:13:07;96129.38;;;23.63;80.81
57644;BME280;43474;46.510;6.686;2023-07-28T11:15:33;96133.66;;;23.64;80.64
57644;BME280;43474;46.510;6.686;2023-07-28T11:17:59;96128.72;;;23.66;79.82
57644;BME280;43474;46.510;6.686;2023-07-28T11:20:28;96136.53;;;23.68;80.76
57644;BME280;43474;46.510;6.686;2023-07-28T11:22:56;96128.06;;;23.69;80.80
57644;BME280;43474;46.510;6.686;2023-07-28T11:25:23;96129.97;;;23.69;80.40
57644;BME280;43474;46.510;6.686;2023-07-28T11:27:49;96119.00;;;23.65;80.41
57644;BME280;43474;46.510;6.686;2023-07-28T11:30:17;96129.19;;;23.68;81.27
57644;BME280;43474;46.510;6.686;2023-07-28T11:32:47;96127.91;;;23.66;81.30
57644;BME280;43474;46.510;6.686;2023-07-28T11:35:14;96121.72;;;23.65;81.38
57644;BME280;43474;46.510;6.686;2023-07-28T11:37:46;96129.03;;;23.65;81.26
57644;BME280;43474;46.510;6.686;2023-07-28T11:40:11;96120.13;;;23.64;81.70
57644;BME280;43474;46.510;6.686;2023-07-28T11:42:49;96112.03;;;23.64;81.57
57644;BME280;43474;46.510;6.686;2023-07-28T11:45:17;96106.59;;;23.64;81.53
57644;BME280;43474;46.510;6.686;2023-07-28T11:48:06;96113.59;;;23.65;81.18
57644;BME280;43474;46.510;6.686;2023-07-28T11:50:38;96101.19;;;23.64;81.34
57644;BME280;43474;46.510;6.686;2023-07-28T11:53:05;96108.53;;;23.64;81.65
57644;BME280;43474;46.510;6.686;2023-07-28T11:55:33;96105.81;;;23.64;81.49
57644;BME280;43474;46.510;6.686;2023-07-28T11:58:00;96107.41;;;23.65;81.48
57644;BME280;43474;46.510;6.686;2023-07-28T12:03:09;96107.06;;;23.66;81.36
57644;BME280;43474;46.510;6.686;2023-07-28T12:05:37;96102.00;;;23.65;81.49
57644;BME280;43474;46.510;6.686;2023-07-28T12:08:03;96096.25;;;23.66;81.33
57644;BME280;43474;46.510;6.686;2023-07-28T12:10:29;96096.25;;;23.66;81.48
57644;BME280;43474;46.510;6.686;2023-07-28T12:12:57;96093.53;;;23.66;81.31
57644;BME280;43474;46.510;6.686;2023-07-28T12:15:29;96106.75;;;23.68;81.51
57644;BME280;43474;46.510;6.686;2023-07-28T12:18:06;96105.97;;;23.67;81.25
57644;BME280;43474;46.510;6.686;2023-07-28T12:20:44;96103.56;;;23.66;81.47
57644;BME280;43474;46.510;6.686;2023-07-28T12:23:16;96103.25;;;23.67;81.64
57644;BME280;43474;46.510;6.686;2023-07-28T12:25:42;96093.22;;;23.68;81.39
57644;BME280;43474;46.510;6.686;2023-07-28T12:28:08;96102.44;;;23.67;81.65
57644;BME280;43474;46.510;6.686;2023-07-28T12:30:34;96099.44;;;23.68;81.20
57644;BME280;43474;46.510;6.686;2023-07-28T12:32:59;96096.72;;;23.68;81.50
57644;BME280;43474;46.510;6.686;2023-07-28T12:35:26;96092.09;;;23.69;81.60
57644;BME280;43474;46.510;6.686;2023-07-28T12:37:57;96106.41;;;23.69;81.44
57644;BME280;43474;46.510;6.686;2023-07-28T12:40:26;96098.31;;;23.69;81.37
57644;BME280;43474;46.510;6.686;2023-07-28T12:42:52;96098.63;;;23.68;81.44
57644;BME280;43474;46.510;6.686;2023-07-28T12:45:17;96098.31;;;23.69;81.40
57644;BME280;43474;46.510;6.686;2023-07-28T12:47:43;96092.09;;;23.69;81.56
57644;BME280;43474;46.510;6.686;2023-07-28T12:50:09;96095.59;;;23.69;81.32
57644;BME280;43474;46.510;6.686;2023-07-28T12:52:36;96089.41;;;23.69;81.52
57644;BME280;43474;46.510;6.686;2023-07-28T12:55:02;96082.41;;;23.68;81.57
57644;BME280;43474;46.510;6.686;2023-07-28T12:57:28;96089.06;;;23.70;81.23
57644;BME280;43474;46.510;6.686;2023-07-28T12:59:53;96082.06;;;23.69;81.52
57644;BME280;43474;46.510;6.686;2023-07-28T13:02:19;96083.66;;;23.70;81.44
57644;BME280;43474;46.510;6.686;2023-07-28T13:04:44;96083.97;;;23.69;81.50